Humidity-temperature Sensor

Selected Measurement Type: Air Temperature

 
Air Temperature [°C]     6 entries per hour
Showing data from 8/28/2016 (00:00:00 Z) to 8/21/2016 (00:01:00 Z)
Previous Next [ Day | 3-Days | 7-Days ]
First Last
Prev [ Day | 3-Days | 7-Days ] Next
First Last

Start Time:     :
End Time:     :     
Time (in GMT) :00 :50 :40 :30 :20 :10
Previous Next [ Day | 3-Days | 7-Days ]
First Last
Prev [ Day | 3-Days | 7-Days ] Next
First Last


123 => good data
MM => data is determined as missing
-- => data not received/configured
Back to Top Back to Top
8/28/2016 00:00 to 23:10 20.35 20.36 20.38 20.40 20.38 20.40
8/27/2016 23:00 to 22:10 20.36 20.43 20.32 20.36 20.30 20.37
8/27/2016 22:00 to 21:10 20.29 20.30 20.31 20.28 20.32 20.30
8/27/2016 21:00 to 20:10 20.31 20.29 20.34 20.33 20.38 20.34
8/27/2016 20:00 to 19:10 20.26 20.24 20.28 20.16 20.09 20.11
8/27/2016 19:00 to 18:10 20.09 20.09 20.06 19.93 19.95 19.90
8/27/2016 18:00 to 17:10 19.89 19.81 19.79 19.73 19.70 19.47
8/27/2016 17:00 to 16:10 19.38 19.32 19.25 19.16 19.10 19.06
8/27/2016 16:00 to 15:10 18.96 18.88 18.75 18.73 18.64 18.64
8/27/2016 15:00 to 14:10 18.52 18.53 18.53 18.53 18.51 18.49
8/27/2016 14:00 to 13:10 18.46 18.43 18.40 18.37 18.48 18.58
8/27/2016 13:00 to 12:10 18.47 18.33 18.14 17.94 17.89 17.80
8/27/2016 12:00 to 11:10 17.85 17.77 17.76 17.67 17.73 17.77
8/27/2016 11:00 to 10:10 17.84 17.91 18.02 18.01 18.07 18.09
8/27/2016 10:00 to 9:10 18.20 18.30 18.37 18.50 18.57 18.64
8/27/2016 09:00 to 8:10 18.68 18.74 18.77 18.82 18.82 18.87
8/27/2016 08:00 to 7:10 18.87 18.90 18.93 18.96 18.99 19.01
8/27/2016 07:00 to 6:10 19.04 19.05 19.08 19.10 19.11 19.14
8/27/2016 06:00 to 5:10 19.16 19.18 19.21 19.24 19.25 19.28
8/27/2016 05:00 to 4:10 19.31 19.33 19.36 19.36 19.38 19.42
8/27/2016 04:00 to 3:10 19.43 19.45 19.45 19.45 19.46 19.45
8/27/2016 03:00 to 2:10 19.43 19.42 19.45 19.43 19.42 19.41
8/27/2016 02:00 to 1:10 19.36 19.45 19.48 19.43 19.50 19.68
8/27/2016 01:00 to 0:10 19.73 19.79 19.94 20.21 20.22 20.29
8/27/2016 00:00 to 23:10 20.27 20.26 20.18 20.36 20.38 20.39
8/26/2016 23:00 to 22:10 20.31 20.37 20.38 20.38 20.39 20.44
8/26/2016 22:00 to 21:10 20.47 20.46 20.47 20.46 20.50 20.42
8/26/2016 21:00 to 20:10 -- -- -- -- -- --
8/26/2016 20:00 to 19:10 20.49 20.43 20.37 20.37 20.33 20.32
8/26/2016 19:00 to 18:10 20.27 20.28 20.26 20.25 20.21 20.17
8/26/2016 18:00 to 17:10 20.15 20.17 20.14 20.14 20.13 20.06
8/26/2016 17:00 to 16:10 20.04 20.00 19.99 19.97 19.95 19.93
8/26/2016 16:00 to 15:10 -- -- -- -- -- --
8/26/2016 15:00 to 14:10 19.85 19.84 19.81 19.84 19.83 19.81
8/26/2016 14:00 to 13:10 19.82 19.82 19.84 19.82 19.81 19.76
8/26/2016 13:00 to 12:10 19.69 19.55 19.57 19.56 19.56 19.60
8/26/2016 12:00 to 11:10 19.66 19.67 19.71 19.72 19.74 19.76
8/26/2016 11:00 to 10:10 19.76 19.77 19.79 19.79 19.79 19.78
8/26/2016 10:00 to 9:10 19.76 19.76 19.75 19.71 19.70 19.66
8/26/2016 09:00 to 8:10 19.61 19.54 19.53 19.63 19.65 19.68
8/26/2016 08:00 to 7:10 19.75 19.77 19.80 19.81 19.82 19.83
8/26/2016 07:00 to 6:10 19.85 19.86 19.89 19.91 19.91 19.95
8/26/2016 06:00 to 5:10 19.95 19.99 20.00 20.05 20.12 20.17
8/26/2016 05:00 to 4:10 20.19 20.19 20.19 20.21 20.27 20.33
8/26/2016 04:00 to 3:10 20.39 20.45 20.50 20.48 20.47 20.39
8/26/2016 03:00 to 2:10 20.34 20.31 20.33 20.34 20.31 20.24
8/26/2016 02:00 to 1:10 20.21 20.18 20.14 20.11 20.12 20.14
8/26/2016 01:00 to 0:10 20.17 20.23 20.29 20.36 20.46 20.46
8/26/2016 00:00 to 23:10 -- -- -- -- -- --
8/25/2016 23:00 to 22:10 20.72 20.76 20.72 20.66 20.64 20.58
8/25/2016 22:00 to 21:10 20.60 20.59 20.53 20.52 20.52 20.49
8/25/2016 21:00 to 20:10 20.44 20.38 20.31 20.27 20.22 20.21
8/25/2016 20:00 to 19:10 20.20 20.22 20.24 20.22 20.26 20.27
8/25/2016 19:00 to 18:10 20.24 20.33 20.33 20.26 20.21 20.18
8/25/2016 18:00 to 17:10 20.14 20.10 20.09 20.12 20.11 20.09
8/25/2016 17:00 to 16:10 20.11 20.17 20.17 20.11 20.09 20.06
8/25/2016 16:00 to 15:10 19.98 19.84 19.83 19.81 19.84 19.83
8/25/2016 15:00 to 14:10 19.82 19.78 19.71 19.71 19.73 19.69
8/25/2016 14:00 to 13:10 19.68 19.71 19.71 19.69 19.69 19.68
8/25/2016 13:00 to 12:10 19.68 19.64 19.62 19.58 19.59 19.62
8/25/2016 12:00 to 11:10 19.67 19.60 19.61 19.69 19.66 19.66
8/25/2016 11:00 to 10:10 19.63 19.57 19.54 19.54 19.54 19.55
8/25/2016 10:00 to 9:10 19.59 19.61 19.61 19.63 19.61 19.63
8/25/2016 09:00 to 8:10 19.62 19.62 19.67 19.71 19.78 19.85
8/25/2016 08:00 to 7:10 19.89 19.88 19.91 19.89 19.88 19.81
8/25/2016 07:00 to 6:10 19.81 19.79 19.77 19.74 19.75 19.74
8/25/2016 06:00 to 5:10 19.71 19.73 19.73 19.74 19.75 19.74
8/25/2016 05:00 to 4:10 19.75 19.74 19.72 19.73 19.75 19.78
8/25/2016 04:00 to 3:10 19.75 19.73 19.75 19.79 19.79 19.79
8/25/2016 03:00 to 2:10 19.79 19.82 19.83 19.85 19.86 19.90
8/25/2016 02:00 to 1:10 19.89 19.93 19.95 19.93 19.90 19.85
8/25/2016 01:00 to 0:10 19.82 19.80 19.78 19.74 19.77 19.76
8/25/2016 00:00 to 23:10 19.74 19.72 19.71 19.70 19.69 19.66
8/24/2016 23:00 to 22:10 19.74 19.72 19.71 19.71 19.70 19.71
8/24/2016 22:00 to 21:10 19.69 19.76 19.77 19.85 19.88 19.92
8/24/2016 21:00 to 20:10 20.00 20.04 19.97 19.91 19.96 19.89
8/24/2016 20:00 to 19:10 19.86 19.80 19.76 19.79 19.80 19.74
8/24/2016 19:00 to 18:10 19.81 19.78 19.74 19.67 19.66 19.63
8/24/2016 18:00 to 17:10 19.57 19.68 19.63 19.58 19.54 19.61
8/24/2016 17:00 to 16:10 19.58 19.50 19.48 19.53 19.57 19.65
8/24/2016 16:00 to 15:10 19.61 19.62 19.69 19.76 19.81 19.84
8/24/2016 15:00 to 14:10 19.85 19.85 19.86 19.89 19.88 19.76
8/24/2016 14:00 to 13:10 19.74 19.82 19.88 19.84 19.78 19.70
8/24/2016 13:00 to 12:10 19.74 19.73 19.58 19.49 19.48 19.60
8/24/2016 12:00 to 11:10 19.63 19.70 19.73 19.76 19.80 19.80
8/24/2016 11:00 to 10:10 19.79 19.76 19.80 19.76 19.82 19.84
8/24/2016 10:00 to 9:10 19.83 19.80 19.80 19.77 19.76 19.78
8/24/2016 09:00 to 8:10 19.79 19.83 19.84 19.84 19.84 19.84
8/24/2016 08:00 to 7:10 19.84 19.88 19.89 19.90 19.90 19.96
8/24/2016 07:00 to 6:10 19.95 19.97 19.89 19.76 19.77 19.82
8/24/2016 06:00 to 5:10 19.84 19.85 19.89 19.90 19.91 19.92
8/24/2016 05:00 to 4:10 19.92 19.92 19.94 19.97 19.97 19.97
8/24/2016 04:00 to 3:10 19.98 19.98 20.02 20.02 20.05 20.07
8/24/2016 03:00 to 2:10 20.09 20.10 20.11 20.10 20.11 20.12
8/24/2016 02:00 to 1:10 20.14 20.16 20.20 20.24 20.33 20.37
8/24/2016 01:00 to 0:10 20.40 20.48 20.44 20.35 20.47 20.52
8/24/2016 00:00 to 23:10 20.52 20.54 20.54 20.59 20.58 20.60
8/23/2016 23:00 to 22:10 20.57 20.60 20.71 20.72 20.70 20.72
8/23/2016 22:00 to 21:10 20.68 20.65 20.66 20.69 20.67 20.64
8/23/2016 21:00 to 20:10 20.65 20.70 20.61 20.65 20.62 20.58
8/23/2016 20:00 to 19:10 20.57 20.60 20.53 20.55 20.59 20.54
8/23/2016 19:00 to 18:10 20.53 20.51 20.39 20.34 20.29 20.25
8/23/2016 18:00 to 17:10 20.23 20.18 20.15 20.07 20.01 20.01
8/23/2016 17:00 to 16:10 19.96 19.93 19.96 19.88 19.82 19.75
8/23/2016 16:00 to 15:10 -- -- -- -- -- --
8/23/2016 15:00 to 14:10 19.49 19.58 19.63 19.53 19.51 19.51
8/23/2016 14:00 to 13:10 19.58 19.56 19.58 19.60 19.74 19.69
8/23/2016 13:00 to 12:10 19.66 19.78 19.92 19.84 19.88 19.88
8/23/2016 12:00 to 11:10 19.87 19.97 19.94 19.96 20.02 20.15
8/23/2016 11:00 to 10:10 20.27 20.23 20.32 20.25 20.30 20.38
8/23/2016 10:00 to 9:10 20.35 20.20 20.19 20.19 20.22 20.38
8/23/2016 09:00 to 8:10 20.16 20.14 20.16 20.20 20.26 20.24
8/23/2016 08:00 to 7:10 20.12 20.00 19.72 19.71 19.79 19.80
8/23/2016 07:00 to 6:10 19.78 19.84 20.08 20.23 20.21 20.28
8/23/2016 06:00 to 5:10 20.32 20.30 20.33 20.33 20.35 20.29
8/23/2016 05:00 to 4:10 20.30 20.29 20.27 20.27 20.34 20.29
8/23/2016 04:00 to 3:10 20.27 20.13 19.91 19.97 19.99 20.00
8/23/2016 03:00 to 2:10 20.02 20.05 20.07 20.08 20.10 20.11
8/23/2016 02:00 to 1:10 20.12 20.13 20.13 20.15 20.19 20.20
8/23/2016 01:00 to 0:10 20.21 20.24 20.26 20.30 20.29 20.32
8/23/2016 00:00 to 23:10 20.41 20.42 20.48 20.47 20.46 20.51
8/22/2016 23:00 to 22:10 20.44 20.40 20.43 20.41 20.43 20.37
8/22/2016 22:00 to 21:10 20.40 20.37 20.33 20.30 20.25 20.25
8/22/2016 21:00 to 20:10 20.24 20.20 20.16 20.14 20.09 20.11
8/22/2016 20:00 to 19:10 20.06 20.06 20.05 20.02 20.01 19.96
8/22/2016 19:00 to 18:10 19.96 19.95 19.98 19.98 19.97 19.99
8/22/2016 18:00 to 17:10 19.96 19.93 19.88 19.88 19.92 19.93
8/22/2016 17:00 to 16:10 19.98 19.97 19.90 19.95 19.94 19.90
8/22/2016 16:00 to 15:10 19.95 19.97 19.91 19.95 19.93 19.94
8/22/2016 15:00 to 14:10 19.95 19.97 19.98 19.98 19.95 19.95
8/22/2016 14:00 to 13:10 19.94 19.94 19.95 19.95 19.92 19.88
8/22/2016 13:00 to 12:10 19.80 19.69 19.61 19.55 19.55 19.56
8/22/2016 12:00 to 11:10 19.56 19.56 19.58 19.58 19.60 19.60
8/22/2016 11:00 to 10:10 19.61 19.64 19.64 19.65 19.66 19.68
8/22/2016 10:00 to 9:10 19.71 19.76 19.75 19.77 19.76 19.79
8/22/2016 09:00 to 8:10 19.80 19.83 19.84 19.85 19.89 19.91
8/22/2016 08:00 to 7:10 19.96 19.95 19.97 19.97 19.98 20.01
8/22/2016 07:00 to 6:10 20.03 20.04 20.06 20.07 20.09 20.11
8/22/2016 06:00 to 5:10 20.10 20.04 20.07 20.07 20.11 20.15
8/22/2016 05:00 to 4:10 20.22 20.26 20.29 20.30 20.36 20.36
8/22/2016 04:00 to 3:10 20.33 20.37 20.36 20.40 20.40 20.33
8/22/2016 03:00 to 2:10 20.21 20.21 20.22 20.22 20.22 20.26
8/22/2016 02:00 to 1:10 20.23 20.27 20.26 20.29 20.29 20.32
8/22/2016 01:00 to 0:10 20.28 20.30 20.31 20.33 20.42 20.44
8/22/2016 00:00 to 23:10 20.46 20.50 20.50 20.54 20.58 20.57
8/21/2016 23:00 to 22:10 20.58 20.62 20.62 20.62 20.65 20.64
8/21/2016 22:00 to 21:10 20.64 20.61 20.58 20.74 20.72 20.75
8/21/2016 21:00 to 20:10 20.72 20.69 20.70 20.72 20.76 20.76
8/21/2016 20:00 to 19:10 20.76 20.73 20.72 20.73 20.72 20.64
8/21/2016 19:00 to 18:10 20.63 20.66 20.54 20.53 20.54 20.60
8/21/2016 18:00 to 17:10 20.58 20.56 20.57 20.59 20.56 20.52
8/21/2016 17:00 to 16:10 20.49 20.44 20.46 20.47 20.45 20.45
8/21/2016 16:00 to 15:10 20.44 20.42 20.42 20.43 20.37 20.38
8/21/2016 15:00 to 14:10 20.37 20.33 20.28 20.34 20.36 20.41
8/21/2016 14:00 to 13:10 20.37 20.38 20.36 20.37 20.41 20.37
8/21/2016 13:00 to 12:10 20.38 20.41 20.42 20.45 20.41 20.37
8/21/2016 12:00 to 11:10 20.33 20.34 20.37 20.39 20.40 20.42
8/21/2016 11:00 to 10:10 20.44 20.46 20.43 20.46 20.48 20.44
8/21/2016 10:00 to 9:10 20.43 20.44 20.40 20.44 20.46 20.49
8/21/2016 09:00 to 8:10 20.41 20.48 20.46 20.44 20.52 20.49
8/21/2016 08:00 to 7:10 20.47 20.51 20.52 20.55 20.46 20.49
8/21/2016 07:00 to 6:10 20.52 20.52 20.51 20.56 20.58 20.56
8/21/2016 06:00 to 5:10 20.62 20.58 20.56 20.58 20.61 20.64
8/21/2016 05:00 to 4:10 20.60 20.62 20.62 20.63 20.71 20.69
8/21/2016 04:00 to 3:10 20.67 20.72 20.70 20.76 20.75 20.79
8/21/2016 03:00 to 2:10 20.74 20.73 20.73 20.71 20.74 20.72
8/21/2016 02:00 to 1:10 20.73 20.71 20.73 20.75 20.73 20.73
8/21/2016 01:00 to 0:10 20.75 20.71 20.61 20.45 20.65 20.78